ASP548 KMYR-KBHM
Flight info
| Callsign | ASP548 |
|---|---|
| Flight time | N/A |
| Altitude | 40000 |
| Route | IRQ THRSR KIOSK |
| Aircraft | C25B/M-SDE2E3FGHRWXY/LB1 |
Departure
| Time | 2026-04-28 20:05 |
|---|---|
| Airport | Myrtle Beach International Airport (KMYR) |
Arrival
| Time | N/A |
|---|---|
| Airport | Birmingham-Shuttlesworth International Airport (KBHM) |
| Time | Latitude | Longitude | Altitude | Speed | Heading |
|---|---|---|---|---|---|
| 2026-04-28 19:52 | 33.67409 | -78.93285 | 27 ft | 0 kts | 171° |
| 2026-04-28 20:00 | 33.67402 | -78.93283 | 27 ft | 5 kts | 164° |
| 2026-04-28 20:01 | 33.67394 | -78.93242 | 14 ft | 7 kts | 80° |
| 2026-04-28 20:01 | 33.67404 | -78.93176 | 27 ft | 9 kts | 77° |
| 2026-04-28 20:01 | 33.67423 | -78.93092 | 27 ft | 12 kts | 75° |
| 2026-04-28 20:01 | 33.67490 | -78.93076 | 27 ft | 16 kts | 348° |
| 2026-04-28 20:02 | 33.67630 | -78.93110 | 27 ft | 24 kts | 348° |
| 2026-04-28 20:02 | 33.67799 | -78.93153 | 27 ft | 26 kts | 348° |
| 2026-04-28 20:02 | 33.67985 | -78.93199 | 27 ft | 28 kts | 348° |
| 2026-04-28 20:02 | 33.68180 | -78.93248 | 27 ft | 29 kts | 348° |
| 2026-04-28 20:03 | 33.68382 | -78.93297 | 27 ft | 30 kts | 348° |
| 2026-04-28 20:03 | 33.68591 | -78.93351 | 27 ft | 31 kts | 347° |
| 2026-04-28 20:03 | 33.68806 | -78.93407 | 27 ft | 32 kts | 349° |
| 2026-04-28 20:03 | 33.69027 | -78.93460 | 27 ft | 27 kts | 349° |
| 2026-04-28 20:04 | 33.69147 | -78.93472 | 27 ft | 18 kts | 21° |
| 2026-04-28 20:04 | 33.69208 | -78.93339 | 28 ft | 21 kts | 78° |
| 2026-04-28 20:04 | 33.69235 | -78.93180 | 29 ft | 14 kts | 81° |
| 2026-04-28 20:04 | 33.69157 | -78.93127 | 29 ft | 35 kts | 169° |
| 2026-04-28 20:05 | 33.68472 | -78.92948 | 99 ft | 160 kts | 167° |
| 2026-04-28 20:05 | 33.67148 | -78.92566 | 809 ft | 215 kts | 167° |
| 2026-04-28 20:05 | 33.65675 | -78.92201 | 2140 ft | 214 kts | 172° |
| 2026-04-28 20:05 | 33.64124 | -78.91855 | 2962 ft | 247 kts | 172° |
| 2026-04-28 20:06 | 33.62262 | -78.91789 | 2975 ft | 290 kts | 194° |
| 2026-04-28 20:06 | 33.60473 | -78.93009 | 3378 ft | 305 kts | 226° |
| 2026-04-28 20:06 | 33.59332 | -78.95136 | 3856 ft | 297 kts | 250° |
| 2026-04-28 20:06 | 33.58371 | -78.97206 | 4335 ft | 292 kts | 230° |
| 2026-04-28 20:07 | 33.56797 | -78.98792 | 5181 ft | 292 kts | 221° |
| 2026-04-28 20:07 | 33.55766 | -78.99799 | 6223 ft | 273 kts | 223° |
| 2026-04-28 20:07 | 33.53773 | -79.01609 | 7576 ft | 274 kts | 221° |
| 2026-04-28 20:07 | 33.52234 | -79.02963 | 8453 ft | 275 kts | 221° |
| 2026-04-28 20:08 | 33.50668 | -79.04312 | 9356 ft | 276 kts | 221° |
| 2026-04-28 20:08 | 33.49105 | -79.05654 | 10224 ft | 277 kts | 221° |
| 2026-04-28 20:08 | 33.47522 | -79.06996 | 10965 ft | 281 kts | 221° |
| 2026-04-28 20:08 | 33.45984 | -79.08404 | 11630 ft | 280 kts | 230° |
| 2026-04-28 20:09 | 33.45046 | -79.10375 | 12356 ft | 271 kts | 256° |
| 2026-04-28 20:09 | 33.44568 | -79.12588 | 12892 ft | 282 kts | 259° |
| 2026-04-28 20:09 | 33.44138 | -79.14922 | 13455 ft | 288 kts | 261° |
| 2026-04-28 20:09 | 33.43736 | -79.17276 | 14136 ft | 290 kts | 261° |
| 2026-04-28 20:10 | 33.43337 | -79.19656 | 14695 ft | 293 kts | 262° |
| 2026-04-28 20:10 | 33.43378 | -79.22078 | 15204 ft | 293 kts | 282° |
| 2026-04-28 20:10 | 33.43854 | -79.24466 | 15724 ft | 298 kts | 283° |
| 2026-04-28 20:10 | 33.44246 | -79.26949 | 16064 ft | 307 kts | 279° |
| 2026-04-28 20:11 | 33.44480 | -79.29518 | 16437 ft | 314 kts | 276° |
| 2026-04-28 20:11 | 33.44706 | -79.32131 | 16814 ft | 319 kts | 278° |
| 2026-04-28 20:11 | 33.44988 | -79.34785 | 17281 ft | 320 kts | 278° |
| 2026-04-28 20:11 | 33.45272 | -79.37446 | 17626 ft | 325 kts | 278° |
| 2026-04-28 20:12 | 33.45550 | -79.40108 | 18040 ft | 327 kts | 278° |
| 2026-04-28 20:12 | 33.45819 | -79.42827 | 18430 ft | 329 kts | 278° |
| 2026-04-28 20:12 | 33.46101 | -79.45550 | 18814 ft | 330 kts | 279° |
| 2026-04-28 20:12 | 33.46288 | -79.47361 | 19040 ft | 331 kts | 278° |
| 2026-04-28 20:13 | 33.46660 | -79.51033 | 19474 ft | 334 kts | 278° |
| 2026-04-28 20:13 | 33.46943 | -79.53807 | 19789 ft | 336 kts | 278° |
| 2026-04-28 20:13 | 33.47223 | -79.56595 | 20097 ft | 338 kts | 278° |
| 2026-04-28 20:13 | 33.47511 | -79.59410 | 20409 ft | 340 kts | 278° |
| 2026-04-28 20:14 | 33.47793 | -79.62237 | 20708 ft | 342 kts | 278° |
| 2026-04-28 20:14 | 33.48079 | -79.65036 | 21002 ft | 344 kts | 278° |
| 2026-04-28 20:14 | 33.48360 | -79.67884 | 21291 ft | 345 kts | 278° |
| 2026-04-28 20:14 | 33.48650 | -79.70732 | 21911 ft | 337 kts | 278° |
| 2026-04-28 20:15 | 33.48922 | -79.73505 | 22329 ft | 338 kts | 278° |
| 2026-04-28 20:15 | 33.49209 | -79.76319 | 22635 ft | 341 kts | 278° |
| 2026-04-28 20:15 | 33.49485 | -79.79144 | 22973 ft | 343 kts | 278° |
| 2026-04-28 20:15 | 33.49768 | -79.81980 | 23335 ft | 343 kts | 278° |
| 2026-04-28 20:16 | 33.50051 | -79.84827 | 23651 ft | 345 kts | 278° |
| 2026-04-28 20:16 | 33.50336 | -79.87700 | 23918 ft | 347 kts | 278° |
| 2026-04-28 20:16 | 33.50615 | -79.90577 | 24174 ft | 349 kts | 278° |
| 2026-04-28 20:16 | 33.50905 | -79.93475 | 24431 ft | 350 kts | 278° |
| 2026-04-28 20:17 | 33.51182 | -79.96344 | 24768 ft | 348 kts | 278° |
| 2026-04-28 20:17 | 33.51460 | -79.99144 | 25606 ft | 334 kts | 277° |
| 2026-04-28 20:17 | 33.51727 | -80.01929 | 25890 ft | 338 kts | 277° |
| 2026-04-28 20:17 | 33.52006 | -80.04742 | 26237 ft | 340 kts | 277° |
| 2026-04-28 20:18 | 33.52277 | -80.07568 | 26582 ft | 342 kts | 277° |
| 2026-04-28 20:18 | 33.52461 | -80.09454 | 26798 ft | 344 kts | 277° |
| 2026-04-28 20:18 | 33.52830 | -80.13276 | 27253 ft | 347 kts | 277° |
| 2026-04-28 20:18 | 33.53111 | -80.16164 | 27583 ft | 349 kts | 277° |
| 2026-04-28 20:19 | 33.53388 | -80.19053 | 27963 ft | 349 kts | 277° |
| 2026-04-28 20:19 | 33.53661 | -80.21920 | 28295 ft | 351 kts | 277° |
| 2026-04-28 20:19 | 33.53944 | -80.24836 | 28619 ft | 353 kts | 277° |
| 2026-04-28 20:19 | 33.54220 | -80.27769 | 28926 ft | 355 kts | 277° |
| 2026-04-28 20:20 | 33.54505 | -80.30713 | 29231 ft | 357 kts | 277° |
| 2026-04-28 20:20 | 33.54782 | -80.33678 | 29534 ft | 358 kts | 277° |
| 2026-04-28 20:20 | 33.55068 | -80.36653 | 29824 ft | 360 kts | 277° |
| 2026-04-28 20:20 | 33.55345 | -80.39616 | 30092 ft | 362 kts | 277° |
| 2026-04-28 20:21 | 33.55632 | -80.42618 | 30337 ft | 363 kts | 277° |
| 2026-04-28 20:21 | 33.55911 | -80.45634 | 30572 ft | 364 kts | 277° |
| 2026-04-28 20:21 | 33.56198 | -80.48655 | 30864 ft | 363 kts | 277° |
| 2026-04-28 20:21 | 33.56470 | -80.51608 | 31574 ft | 352 kts | 277° |
| 2026-04-28 20:22 | 33.56746 | -80.54539 | 31861 ft | 354 kts | 277° |
| 2026-04-28 20:22 | 33.57018 | -80.57462 | 32249 ft | 353 kts | 277° |
| 2026-04-28 20:22 | 33.57290 | -80.60388 | 32554 ft | 354 kts | 276° |
| 2026-04-28 20:22 | 33.57563 | -80.63335 | 32840 ft | 355 kts | 277° |
| 2026-04-28 20:23 | 33.57834 | -80.66286 | 33120 ft | 357 kts | 276° |
| 2026-04-28 20:23 | 33.58106 | -80.69218 | 33391 ft | 358 kts | 276° |
| 2026-04-28 20:23 | 33.58378 | -80.72198 | 33659 ft | 359 kts | 276° |
| 2026-04-28 20:23 | 33.58654 | -80.75183 | 33925 ft | 360 kts | 276° |
| 2026-04-28 20:24 | 33.58924 | -80.78174 | 34179 ft | 361 kts | 276° |
| 2026-04-28 20:24 | 33.59201 | -80.81176 | 34404 ft | 362 kts | 276° |
| 2026-04-28 20:24 | 33.59472 | -80.84189 | 34629 ft | 363 kts | 276° |
| 2026-04-28 20:24 | 33.59747 | -80.87200 | 34850 ft | 364 kts | 276° |
| 2026-04-28 20:25 | 33.60014 | -80.90184 | 35058 ft | 364 kts | 276° |
| 2026-04-28 20:25 | 33.60290 | -80.93205 | 35289 ft | 363 kts | 276° |
| 2026-04-28 20:25 | 33.60557 | -80.96225 | 35513 ft | 364 kts | 276° |
| 2026-04-28 20:25 | 33.60831 | -80.99243 | 35701 ft | 365 kts | 276° |
| 2026-04-28 20:26 | 33.61099 | -81.02274 | 35900 ft | 365 kts | 276° |
| 2026-04-28 20:26 | 33.61372 | -81.05304 | 36094 ft | 366 kts | 276° |
| 2026-04-28 20:26 | 33.61640 | -81.08344 | 36275 ft | 366 kts | 276° |
| 2026-04-28 20:26 | 33.61904 | -81.11320 | 37038 ft | 352 kts | 276° |
| 2026-04-28 20:27 | 33.62163 | -81.14232 | 37315 ft | 353 kts | 276° |
| 2026-04-28 20:27 | 33.62419 | -81.17173 | 37556 ft | 354 kts | 276° |
| 2026-04-28 20:27 | 33.62678 | -81.20100 | 38108 ft | 346 kts | 276° |
| 2026-04-28 20:27 | 33.62927 | -81.22940 | 38766 ft | 341 kts | 276° |
| 2026-04-28 20:28 | 33.63175 | -81.25781 | 38991 ft | 343 kts | 276° |
| 2026-04-28 20:28 | 33.63426 | -81.28633 | 39208 ft | 345 kts | 276° |
| 2026-04-28 20:28 | 33.63674 | -81.31512 | 39421 ft | 347 kts | 276° |
| 2026-04-28 20:28 | 33.63925 | -81.34392 | 39627 ft | 349 kts | 276° |
| 2026-04-28 20:29 | 33.64172 | -81.37262 | 39827 ft | 350 kts | 276° |
| 2026-04-28 20:29 | 33.64669 | -81.43017 | 39837 ft | 343 kts | 276° |
| 2026-04-28 20:30 | 33.65152 | -81.48657 | 39837 ft | 337 kts | 276° |
| 2026-04-28 20:30 | 33.65628 | -81.54222 | 39837 ft | 333 kts | 276° |
| 2026-04-28 20:31 | 33.66093 | -81.59726 | 39836 ft | 330 kts | 276° |
| 2026-04-28 20:31 | 33.66321 | -81.62442 | 40003 ft | 326 kts | 277° |
| 2026-04-28 20:31 | 33.66550 | -81.65148 | 40159 ft | 328 kts | 277° |
| 2026-04-28 20:32 | 33.67019 | -81.70736 | 40168 ft | 344 kts | 277° |
| 2026-04-28 20:32 | 33.67501 | -81.76521 | 40176 ft | 356 kts | 277° |
| 2026-04-28 20:33 | 33.67998 | -81.82518 | 40177 ft | 364 kts | 277° |
| 2026-04-28 20:33 | 33.68487 | -81.88456 | 40180 ft | 351 kts | 277° |
| 2026-04-28 20:34 | 33.68958 | -81.94210 | 40179 ft | 342 kts | 277° |
| 2026-04-28 20:34 | 33.69417 | -81.99842 | 40177 ft | 335 kts | 277° |
| 2026-04-28 20:35 | 33.69864 | -82.05372 | 40187 ft | 330 kts | 277° |
| 2026-04-28 20:35 | 33.70302 | -82.10794 | 40178 ft | 326 kts | 277° |
| 2026-04-28 20:36 | 33.70705 | -82.16200 | 40175 ft | 323 kts | 274° |
| 2026-04-28 20:36 | 33.70593 | -82.21600 | 40175 ft | 322 kts | 271° |
| 2026-04-28 20:37 | 33.70462 | -82.26970 | 40179 ft | 321 kts | 271° |
| 2026-04-28 20:37 | 33.70319 | -82.32289 | 40179 ft | 320 kts | 271° |
| 2026-04-28 20:38 | 33.70177 | -82.37632 | 40179 ft | 320 kts | 271° |
| 2026-04-28 20:38 | 33.70033 | -82.42978 | 40184 ft | 319 kts | 272° |
| 2026-04-28 20:39 | 33.69887 | -82.48307 | 40183 ft | 319 kts | 272° |
| 2026-04-28 20:39 | 33.69737 | -82.53629 | 40200 ft | 319 kts | 271° |
| 2026-04-28 20:40 | 33.69585 | -82.58962 | 40200 ft | 321 kts | 272° |
| 2026-04-28 20:40 | 33.69431 | -82.64299 | 40200 ft | 323 kts | 272° |
| 2026-04-28 20:41 | 33.69273 | -82.69711 | 40199 ft | 324 kts | 271° |
| 2026-04-28 20:41 | 33.69110 | -82.75140 | 40200 ft | 325 kts | 272° |
| 2026-04-28 20:42 | 33.68947 | -82.80583 | 40199 ft | 326 kts | 272° |
| 2026-04-28 20:42 | 33.68809 | -82.85124 | 40192 ft | 327 kts | 272° |
| 2026-04-28 20:43 | 33.68639 | -82.90602 | 40195 ft | 328 kts | 272° |
| 2026-04-28 20:43 | 33.68468 | -82.96053 | 40195 ft | 329 kts | 272° |
| 2026-04-28 20:44 | 33.68292 | -83.01545 | 40195 ft | 329 kts | 272° |
| 2026-04-28 20:44 | 33.68114 | -83.07043 | 40193 ft | 329 kts | 272° |
| 2026-04-28 20:45 | 33.67935 | -83.12515 | 40194 ft | 330 kts | 272° |
| 2026-04-28 20:45 | 33.67752 | -83.18027 | 40189 ft | 330 kts | 272° |
| 2026-04-28 20:46 | 33.67569 | -83.23548 | 40190 ft | 331 kts | 272° |
| 2026-04-28 20:46 | 33.67379 | -83.29068 | 40198 ft | 331 kts | 272° |
| 2026-04-28 20:47 | 33.67190 | -83.34563 | 40198 ft | 331 kts | 272° |
| 2026-04-28 20:47 | 33.66996 | -83.40093 | 40198 ft | 331 kts | 272° |
| 2026-04-28 20:48 | 33.66801 | -83.45631 | 40195 ft | 332 kts | 272° |
| 2026-04-28 20:48 | 33.66603 | -83.51135 | 40196 ft | 332 kts | 272° |
| 2026-04-28 20:49 | 33.66401 | -83.56669 | 40196 ft | 331 kts | 271° |
| 2026-04-28 20:49 | 33.66199 | -83.62171 | 40192 ft | 330 kts | 271° |
| 2026-04-28 20:50 | 33.66103 | -83.64758 | 40190 ft | 329 kts | 271° |
| 2026-04-28 20:50 | 33.65918 | -83.69731 | 40186 ft | 329 kts | 271° |
| 2026-04-28 20:51 | 33.65713 | -83.75168 | 40184 ft | 328 kts | 271° |
| 2026-04-28 20:51 | 33.65503 | -83.80642 | 40183 ft | 328 kts | 271° |
| 2026-04-28 20:52 | 33.65290 | -83.86118 | 40184 ft | 328 kts | 271° |
| 2026-04-28 20:52 | 33.65077 | -83.91581 | 40194 ft | 327 kts | 271° |
| 2026-04-28 20:53 | 33.64754 | -83.99707 | 40186 ft | 324 kts | 271° |
| 2026-04-28 20:53 | 33.64536 | -84.05105 | 40190 ft | 323 kts | 271° |
| 2026-04-28 20:54 | 33.64318 | -84.10480 | 40192 ft | 322 kts | 271° |
| 2026-04-28 20:54 | 33.64099 | -84.15852 | 40193 ft | 321 kts | 271° |
| 2026-04-28 20:55 | 33.63878 | -84.21162 | 40208 ft | 320 kts | 270° |
| 2026-04-28 20:55 | 33.63653 | -84.26517 | 40207 ft | 320 kts | 270° |
| 2026-04-28 20:56 | 33.63426 | -84.31853 | 40210 ft | 320 kts | 270° |
| 2026-04-28 20:56 | 33.63313 | -84.34537 | 39968 ft | 327 kts | 270° |
| 2026-04-28 20:56 | 33.63195 | -84.37275 | 39547 ft | 337 kts | 270° |
| 2026-04-28 20:57 | 33.63074 | -84.40123 | 39101 ft | 346 kts | 270° |
| 2026-04-28 20:57 | 33.62946 | -84.43029 | 38609 ft | 348 kts | 270° |
| 2026-04-28 20:57 | 33.62872 | -84.45869 | 38146 ft | 333 kts | 271° |
| 2026-04-28 20:57 | 33.62820 | -84.48601 | 37676 ft | 321 kts | 271° |
| 2026-04-28 20:58 | 33.62762 | -84.51242 | 37260 ft | 312 kts | 270° |
| 2026-04-28 20:58 | 33.62704 | -84.53817 | 36855 ft | 305 kts | 270° |
| 2026-04-28 20:58 | 33.62649 | -84.56336 | 36456 ft | 299 kts | 270° |
| 2026-04-28 20:58 | 33.62596 | -84.58803 | 36073 ft | 294 kts | 270° |
| 2026-04-28 20:59 | 33.62544 | -84.61245 | 35685 ft | 293 kts | 270° |
| 2026-04-28 20:59 | 33.62486 | -84.63700 | 35300 ft | 296 kts | 270° |
| 2026-04-28 20:59 | 33.62433 | -84.66176 | 34914 ft | 298 kts | 270° |
| 2026-04-28 20:59 | 33.62375 | -84.68677 | 34518 ft | 301 kts | 269° |